Time;durP1;ratioP1;P1;durP2;ratioP2;P2;SDS_P1;SDS_P2;PMS_P1;PMS_P2;Temp;Humidity;BMP_temperature;BMP_pressure;BME280_temperature;BME280_humidity;BME280_pressure;Samples;Min_cycle;Max_cycle;Signal;HPM_P1;HPM_P2
2023/04/27 00:00:09;;;;;;;5.53;3.97;;;;;;;4.36;100.00;93012.41;2484237;23;20450;-84
2023/04/27 00:01:11;;;;;;;5.38;3.78;;;;;;;4.34;100.00;93004.06;2497814;23;20060;-84
2023/04/27 00:02:12;;;;;;;10.02;3.90;;;;;;;4.37;100.00;93006.72;2506836;23;20003;-83
2023/04/27 00:03:14;;;;;;;7.35;4.13;;;;;;;4.34;100.00;92999.53;2494730;23;20020;-83
2023/04/27 00:04:15;;;;;;;5.55;4.03;;;;;;;4.41;100.00;93001.44;2506750;23;20006;-83
2023/04/27 00:05:16;;;;;;;5.85;3.83;;;;;;;4.44;100.00;92998.81;2519233;23;20010;-84
2023/04/27 00:06:17;;;;;;;6.32;4.13;;;;;;;4.44;100.00;93000.69;2519029;23;20002;-84
2023/04/27 00:07:18;;;;;;;10.70;4.60;;;;;;;4.38;100.00;92999.53;2507227;23;20093;-84
2023/04/27 00:08:19;;;;;;;7.07;3.78;;;;;;;4.32;100.00;93001.81;2495102;23;20011;-84
2023/04/27 00:09:20;;;;;;;6.90;3.88;;;;;;;4.35;100.00;93001.06;2506876;23;20014;-84
2023/04/27 00:10:21;;;;;;;8.93;3.95;;;;;;;4.54;100.00;92997.28;2506245;23;20014;-83
2023/04/27 00:11:22;;;;;;;6.47;3.80;;;;;;;4.61;100.00;92999.13;2483380;23;20328;-84
2023/04/27 00:12:23;;;;;;;7.65;4.07;;;;;;;4.65;100.00;92998.00;2507184;23;20583;-83
2023/04/27 00:13:24;;;;;;;5.45;3.50;;;;;;;4.59;100.00;92996.13;2519092;23;20030;-84
2023/04/27 00:14:27;;;;;;;5.70;3.78;;;;;;;4.53;100.00;92993.88;2507145;23;20462;-84
2023/04/27 00:15:28;;;;;;;4.50;3.50;;;;;;;4.51;100.00;92990.84;2519267;23;20371;-83
2023/04/27 00:16:29;;;;;;;6.45;4.30;;;;;;;4.52;100.00;92991.59;2518334;23;20006;-84
2023/04/27 00:17:31;;;;;;;5.82;3.83;;;;;;;4.44;100.00;92988.22;2507041;23;20071;-83
2023/04/27 00:18:32;;;;;;;6.88;4.22;;;;;;;4.44;100.00;92993.50;2494795;23;20631;-84
2023/04/27 00:19:33;;;;;;;5.63;3.60;;;;;;;4.57;100.00;92987.81;2507023;23;20443;-83
2023/04/27 00:20:35;;;;;;;6.20;3.60;;;;;;;4.49;100.00;92987.81;2518023;23;20010;-83
2023/04/27 00:21:36;;;;;;;5.75;3.80;;;;;;;4.49;100.00;92985.19;2506789;23;20042;-83
2023/04/27 00:22:38;;;;;;;6.65;3.83;;;;;;;4.50;100.00;92989.34;2494356;23;20043;-83
2023/04/27 00:23:39;;;;;;;6.53;4.05;;;;;;;4.53;100.00;92982.53;2506552;23;20090;-83
2023/04/27 00:24:40;;;;;;;8.23;3.80;;;;;;;4.46;100.00;92982.53;2518553;23;20017;-83
2023/04/27 00:25:41;;;;;;;6.15;4.18;;;;;;;4.45;100.00;92979.13;2518979;23;20006;-83
2023/04/27 00:26:43;;;;;;;6.20;3.90;;;;;;;4.48;100.00;92975.72;2506582;23;20011;-83
2023/04/27 00:27:44;;;;;;;6.13;3.72;;;;;;;4.47;100.00;92987.44;2506709;23;20014;-83
2023/04/27 00:28:45;;;;;;;5.43;4.03;;;;;;;4.47;100.00;92979.50;2494651;23;20018;-83
2023/04/27 00:29:47;;;;;;;6.40;3.95;;;;;;;4.48;100.00;92975.72;2506386;23;20018;-83
2023/04/27 00:30:48;;;;;;;4.78;3.92;;;;;;;4.45;100.00;92973.84;2494903;23;20039;-83
2023/04/27 00:31:49;;;;;;;5.43;3.78;;;;;;;4.43;100.00;92978.75;2495213;23;20473;-83
2023/04/27 00:32:50;;;;;;;5.95;3.92;;;;;;;4.45;100.00;92970.44;2495192;23;20035;-83
2023/04/27 00:33:51;;;;;;;6.97;3.60;;;;;;;4.44;100.00;92971.59;2505789;23;20038;-83
2023/04/27 00:34:52;;;;;;;5.70;3.92;;;;;;;4.47;100.00;92976.09;2506425;23;20526;-83
2023/04/27 00:36:03;;;;;;;4.65;3.50;;;;;;;4.48;100.00;92970.44;2506883;23;20089;-83
2023/04/27 00:37:05;;;;;;;8.88;4.05;;;;;;;4.42;100.00;92973.84;2486928;23;20357;-83
2023/04/27 00:38:06;;;;;;;7.47;3.90;;;;;;;4.46;100.00;92978.00;2495485;23;20008;-84
2023/04/27 00:39:07;;;;;;;9.35;4.30;;;;;;;4.48;100.00;92977.63;2517992;23;20017;-83
2023/04/27 00:40:09;;;;;;;5.03;3.50;;;;;;;4.51;100.00;92972.31;2506030;23;20010;-83
2023/04/27 00:41:10;;;;;;;6.15;4.20;;;;;;;4.51;100.00;92972.31;2495048;23;20011;-83
2023/04/27 00:42:16;;;;;;;8.02;3.83;;;;;;;4.53;100.00;92967.41;2494855;23;20015;-83
2023/04/27 00:43:17;;;;;;;6.13;3.95;;;;;;;4.50;100.00;92970.81;2506486;23;20007;-83
2023/04/27 00:44:26;;;;;;;7.10;3.78;;;;;;;4.54;100.00;92970.81;2495207;23;20007;-83
2023/04/27 00:45:27;;;;;;;7.97;4.15;;;;;;;4.53;100.00;92972.69;2508185;23;20138;-83
2023/04/27 00:46:28;;;;;;;7.65;3.85;;;;;;;4.50;100.00;92964.75;2506512;23;20011;-83
2023/04/27 00:47:30;;;;;;;5.80;3.72;;;;;;;4.48;100.00;92967.78;2506764;23;20006;-84
2023/04/27 00:48:32;;;;;;;6.13;4.20;;;;;;;4.43;100.00;92970.81;2506988;23;20505;-84
2023/04/27 00:49:35;;;;;;;8.80;4.57;;;;;;;4.44;100.00;92966.28;2506575;23;20094;-84
2023/04/27 00:50:37;;;;;;;8.30;4.88;;;;;;;4.42;100.00;92965.91;2506926;23;20023;-83
2023/04/27 00:51:39;;;;;;;7.63;4.50;;;;;;;4.41;100.00;92973.09;2506736;23;20340;-84
2023/04/27 00:52:40;;;;;;;14.25;5.90;;;;;;;4.44;100.00;92963.66;2518356;23;20014;-84
2023/04/27 00:53:42;;;;;;;10.70;5.95;;;;;;;4.42;100.00;92969.31;2506296;23;20125;-83
2023/04/27 00:54:44;;;;;;;7.80;5.40;;;;;;;4.43;100.00;92967.41;2483163;23;20011;-83
2023/04/27 00:55:46;;;;;;;8.95;5.43;;;;;;;4.45;100.00;92962.50;2483248;23;20015;-82
2023/04/27 00:56:49;;;;;;;9.18;5.55;;;;;;;4.47;100.00;92971.56;2495512;23;20094;-84
2023/04/27 00:57:50;;;;;;;9.05;4.93;;;;;;;4.46;100.00;92970.06;2506371;23;20050;-84
2023/04/27 00:58:51;;;;;;;8.15;5.45;;;;;;;4.45;100.00;92968.53;2506608;23;20010;-82
2023/04/27 00:59:52;;;;;;;11.00;5.70;;;;;;;4.46;100.00;92967.41;2506391;23;20494;-83
2023/04/27 01:00:53;;;;;;;9.52;4.97;;;;;;;4.52;100.00;92968.56;2507067;23;20006;-83
2023/04/27 01:01:55;;;;;;;9.63;5.38;;;;;;;4.51;100.00;92972.31;2506782;23;20102;-83
2023/04/27 01:02:56;;;;;;;7.40;4.72;;;;;;;4.51;100.00;92969.66;2506448;23;20154;-83
2023/04/27 01:03:57;;;;;;;10.98;5.25;;;;;;;4.49;100.00;92973.84;2506791;23;20014;-83
2023/04/27 01:04:58;;;;;;;10.93;5.47;;;;;;;4.50;100.00;92970.81;2482742;23;20367;-83
2023/04/27 01:06:00;;;;;;;11.02;5.55;;;;;;;4.48;100.00;92974.97;2495162;23;20043;-84
2023/04/27 01:07:01;;;;;;;11.07;5.93;;;;;;;4.60;100.00;92971.91;2507072;23;20017;-83
2023/04/27 01:08:03;;;;;;;12.50;5.65;;;;;;;4.53;100.00;92969.31;2495207;23;20090;-84
2023/04/27 01:09:05;;;;;;;10.50;5.55;;;;;;;4.53;100.00;92978.00;2494663;23;20011;-83
2023/04/27 01:10:07;;;;;;;10.02;5.97;;;;;;;4.58;100.00;92973.44;2494791;23;20011;-83
2023/04/27 01:11:08;;;;;;;10.40;5.80;;;;;;;4.58;100.00;92965.50;2495169;23;20447;-83
2023/04/27 01:12:09;;;;;;;8.55;5.40;;;;;;;4.58;100.00;92979.50;2506470;23;20011;-82
2023/04/27 01:13:10;;;;;;;8.65;5.03;;;;;;;4.60;100.00;92966.63;2495370;23;20035;-84
2023/04/27 01:14:11;;;;;;;6.07;4.82;;;;;;;4.63;100.00;92967.75;2495344;23;20023;-84
2023/04/27 01:15:12;;;;;;;6.28;4.40;;;;;;;4.58;100.00;92970.81;2483411;23;20008;-83
2023/04/27 01:16:13;;;;;;;5.60;4.50;;;;;;;4.45;100.00;92971.19;2482873;23;20007;-83
2023/04/27 01:17:14;;;;;;;9.18;4.50;;;;;;;4.42;100.00;92966.66;2482939;23;20011;-84
2023/04/27 01:18:15;;;;;;;7.00;4.32;;;;;;;4.49;100.00;92974.59;2495395;23;20042;-84
2023/04/27 01:19:16;;;;;;;6.90;4.20;;;;;;;4.55;100.00;92974.97;2495038;23;20389;-84
2023/04/27 01:20:19;;;;;;;7.65;4.35;;;;;;;4.60;100.00;92968.53;2494851;23;20007;-83
2023/04/27 01:21:20;;;;;;;6.78;4.15;;;;;;;4.60;100.00;92969.28;2507164;23;20007;-83
2023/04/27 01:22:21;;;;;;;6.10;4.40;;;;;;;4.57;100.00;92974.59;2517979;23;20022;-84
2023/04/27 01:23:22;;;;;;;8.57;4.72;;;;;;;4.55;100.00;92970.41;2506453;23;20550;-82
2023/04/27 01:24:25;;;;;;;9.30;4.65;;;;;;;4.61;100.00;92976.09;2495077;23;20522;-83
2023/04/27 01:25:26;;;;;;;6.07;4.38;;;;;;;4.58;100.00;92971.56;2495350;23;20014;-83
2023/04/27 01:26:27;;;;;;;7.53;4.93;;;;;;;4.60;100.00;92974.56;2506253;23;20434;-84
2023/04/27 01:27:28;;;;;;;6.10;4.72;;;;;;;4.50;100.00;92970.81;2505724;23;20002;-83
2023/04/27 01:28:30;;;;;;;5.47;4.15;;;;;;;4.55;100.00;92969.66;2505916;23;20474;-82
2023/04/27 01:29:31;;;;;;;7.18;5.05;;;;;;;4.52;100.00;92960.59;2494350;23;20415;-84
2023/04/27 01:30:33;;;;;;;8.90;4.32;;;;;;;4.57;100.00;92974.59;2494468;23;20011;-83
2023/04/27 01:31:34;;;;;;;8.48;4.70;;;;;;;4.49;100.00;92968.56;2506088;23;20078;-84
2023/04/27 01:32:38;;;;;;;7.32;4.80;;;;;;;4.54;100.00;92968.16;2495008;23;20496;-83
2023/04/27 01:33:40;;;;;;;8.77;4.65;;;;;;;4.50;100.00;92970.81;2506912;23;20058;-83
2023/04/27 01:34:41;;;;;;;9.65;4.90;;;;;;;4.52;100.00;92973.84;2494759;23;20044;-83
2023/04/27 01:35:42;;;;;;;9.63;4.50;;;;;;;4.52;100.00;92973.84;2482600;23;20268;-83
2023/04/27 01:36:44;;;;;;;8.27;4.30;;;;;;;4.50;100.00;92976.09;2482624;23;20046;-84
2023/04/27 01:37:45;;;;;;;6.38;4.60;;;;;;;4.48;100.00;92975.72;2494580;23;20038;-83
2023/04/27 01:38:46;;;;;;;6.93;4.80;;;;;;;4.44;100.00;92967.03;2494432;23;20019;-83
2023/04/27 01:39:47;;;;;;;6.80;4.70;;;;;;;4.37;100.00;92966.28;2494537;23;20019;-83
2023/04/27 01:40:48;;;;;;;7.00;4.63;;;;;;;4.56;100.00;92971.16;2517900;23;20002;-83
2023/04/27 01:41:49;;;;;;;5.30;4.20;;;;;;;4.57;100.00;92971.94;2506470;23;20015;-83
2023/04/27 01:42:50;;;;;;;6.32;4.70;;;;;;;4.56;100.00;92963.22;2495089;23;20015;-82
2023/04/27 01:43:51;;;;;;;8.50;4.55;;;;;;;4.52;100.00;92970.41;2494831;23;20011;-84
2023/04/27 01:44:53;;;;;;;6.95;4.90;;;;;;;4.44;100.00;92969.69;2506521;23;20029;-84
2023/04/27 01:45:54;;;;;;;7.60;4.70;;;;;;;4.44;100.00;92969.69;2518136;23;20362;-83
2023/04/27 01:46:55;;;;;;;9.05;4.70;;;;;;;4.55;100.00;92970.41;2494681;23;20030;-83
2023/04/27 01:47:56;;;;;;;6.70;4.20;;;;;;;4.51;100.00;92974.97;2495160;23;20011;-83
2023/04/27 01:48:57;;;;;;;5.15;4.13;;;;;;;4.55;100.00;92975.72;2494735;23;20367;-84
2023/04/27 01:49:58;;;;;;;6.63;4.60;;;;;;;4.56;100.00;92971.16;2483539;23;20428;-84
2023/04/27 01:50:59;;;;;;;6.50;4.47;;;;;;;4.55;100.00;92974.97;2494395;23;20007;-83
2023/04/27 01:52:00;;;;;;;4.43;4.00;;;;;;;4.47;100.00;92976.84;2494960;23;20079;-83
2023/04/27 01:53:02;;;;;;;7.05;4.00;;;;;;;4.57;100.00;92979.88;2518230;23;20457;-84
2023/04/27 01:54:03;;;;;;;7.10;4.53;;;;;;;4.58;100.00;92971.56;2518434;23;20009;-84
2023/04/27 01:55:05;;;;;;;8.20;4.40;;;;;;;4.55;100.00;92972.31;2507031;23;20367;-84
2023/04/27 01:56:06;;;;;;;6.93;4.40;;;;;;;4.58;100.00;92976.09;2506699;23;20013;-83
2023/04/27 01:57:07;;;;;;;5.50;4.78;;;;;;;4.51;100.00;92980.25;2506524;23;20010;-83
2023/04/27 01:58:08;;;;;;;7.65;4.60;;;;;;;4.49;100.00;92974.59;2494097;23;20007;-83
2023/04/27 01:59:08;;;;;;;5.70;4.90;;;;;;;4.46;100.00;92972.69;2495198;23;20439;-83
2023/04/27 02:00:10;;;;;;;10.18;5.32;;;;;;;4.52;100.00;92973.06;2506036;23;20046;-83
2023/04/27 02:01:11;;;;;;;6.10;4.40;;;;;;;4.49;100.00;92979.88;2506817;23;20010;-83
2023/04/27 02:02:12;;;;;;;5.63;4.63;;;;;;;4.46;100.00;92972.69;2518326;23;20013;-84
2023/04/27 02:03:13;;;;;;;9.73;4.50;;;;;;;4.53;100.00;92978.00;2494089;23;20003;-83
2023/04/27 02:04:14;;;;;;;6.75;4.30;;;;;;;4.55;100.00;92977.59;2494177;23;20054;-85
2023/04/27 02:05:15;;;;;;;6.93;4.13;;;;;;;4.50;100.00;92972.69;2494519;23;20459;-84
2023/04/27 02:06:16;;;;;;;9.65;4.65;;;;;;;4.54;100.00;92978.75;2483461;23;20007;-85
2023/04/27 02:07:17;;;;;;;7.57;4.30;;;;;;;4.54;100.00;92973.44;2483322;23;20035;-84
2023/04/27 02:08:18;;;;;;;6.95;4.43;;;;;;;4.55;100.00;92969.66;2494887;23;20014;-84
2023/04/27 02:09:19;;;;;;;9.20;5.10;;;;;;;4.60;100.00;92969.28;2506409;23;20003;-83
2023/04/27 02:10:21;;;;;;;6.20;4.68;;;;;;;4.61;100.00;92970.03;2506121;23;20426;-83
2023/04/27 02:11:22;;;;;;;6.90;4.10;;;;;;;4.61;100.00;92975.31;2494807;23;20018;-83
2023/04/27 02:12:23;;;;;;;8.38;4.20;;;;;;;4.55;100.00;92973.06;2494712;23;20006;-83
2023/04/27 02:13:24;;;;;;;4.97;3.78;;;;;;;4.55;100.00;92973.06;2506347;23;20045;-83
2023/04/27 02:14:25;;;;;;;9.07;4.38;;;;;;;4.60;100.00;92981.75;2506324;23;20065;-84
2023/04/27 02:15:26;;;;;;;6.50;4.30;;;;;;;4.49;100.00;92979.13;2495138;23;20018;-83
2023/04/27 02:16:27;;;;;;;7.57;4.30;;;;;;;4.50;100.00;92970.81;2517875;23;20258;-84
2023/04/27 02:17:28;;;;;;;8.10;3.95;;;;;;;4.54;100.00;92974.19;2494545;23;20010;-83
2023/04/27 02:18:31;;;;;;;6.47;3.90;;;;;;;4.52;100.00;92970.41;2482442;23;20003;-83
2023/04/27 02:19:32;;;;;;;5.15;4.25;;;;;;;4.53;100.00;92978.00;2483519;23;20019;-83
2023/04/27 02:20:33;;;;;;;5.35;4.13;;;;;;;4.49;100.00;92977.25;2494683;23;20066;-83
2023/04/27 02:21:35;;;;;;;8.13;4.72;;;;;;;4.49;100.00;92979.88;2494099;23;20085;-83
2023/04/27 02:22:36;;;;;;;5.47;3.90;;;;;;;4.48;100.00;92980.28;2508999;23;20018;-82
2023/04/27 02:23:37;;;;;;;5.72;4.13;;;;;;;4.46;100.00;92982.53;2505740;23;20007;-84
2023/04/27 02:24:38;;;;;;;6.13;4.38;;;;;;;4.45;100.00;92984.44;2494568;23;20007;-84
2023/04/27 02:25:41;;;;;;;5.18;4.53;;;;;;;4.55;100.00;92981.00;2494813;23;20007;-83
2023/04/27 02:26:43;;;;;;;5.80;4.00;;;;;;;4.61;100.00;92978.75;2483691;23;20023;-83
2023/04/27 02:27:44;;;;;;;7.85;4.22;;;;;;;4.59;100.00;92981.00;2495062;23;20463;-84
2023/04/27 02:28:46;;;;;;;5.03;4.10;;;;;;;4.57;100.00;92980.63;2505594;23;20007;-82
2023/04/27 02:29:47;;;;;;;6.75;3.85;;;;;;;4.62;100.00;92982.16;2506313;23;20428;-84
2023/04/27 02:30:48;;;;;;;4.70;4.20;;;;;;;4.60;100.00;92976.47;2494486;23;20079;-83
2023/04/27 02:31:49;;;;;;;6.05;4.20;;;;;;;4.62;100.00;92982.91;2506447;23;20480;-84
2023/04/27 02:32:50;;;;;;;5.65;4.13;;;;;;;4.60;100.00;92987.03;2494599;23;20002;-83
2023/04/27 02:33:51;;;;;;;6.55;4.55;;;;;;;4.58;100.00;92986.69;2506204;23;20007;-83
2023/04/27 02:34:54;;;;;;;10.50;4.75;;;;;;;4.61;100.00;92983.25;2517621;23;20037;-83
2023/04/27 02:35:55;;;;;;;8.27;4.55;;;;;;;4.59;100.00;92985.53;2506795;23;20205;-83
2023/04/27 02:36:56;;;;;;;6.57;4.90;;;;;;;4.58;100.00;92979.50;2494551;23;20234;-83
2023/04/27 02:37:57;;;;;;;7.10;4.95;;;;;;;4.59;100.00;92982.91;2494711;23;20529;-82
2023/04/27 02:38:58;;;;;;;5.40;3.97;;;;;;;4.57;100.00;92987.81;2518136;23;20433;-84
2023/04/27 02:39:59;;;;;;;5.68;4.30;;;;;;;4.57;100.00;92987.81;2494190;23;20007;-84
2023/04/27 02:41:00;;;;;;;6.60;4.53;;;;;;;4.54;100.00;92982.16;2482870;23;20394;-82
2023/04/27 02:42:02;;;;;;;6.40;4.53;;;;;;;4.61;100.00;92978.75;2506155;23;20062;-84
2023/04/27 02:43:03;;;;;;;7.97;4.50;;;;;;;4.66;100.00;92988.19;2517911;23;20136;-83
2023/04/27 02:44:04;;;;;;;6.82;4.28;;;;;;;4.62;100.00;92979.50;2506987;23;20010;-83
2023/04/27 02:45:06;;;;;;;6.70;4.60;;;;;;;4.64;100.00;92980.63;2494857;23;20038;-83
2023/04/27 02:46:07;;;;;;;7.25;4.63;;;;;;;4.60;100.00;92990.44;2507143;23;20010;-83
2023/04/27 02:47:08;;;;;;;8.02;4.53;;;;;;;4.58;100.00;92989.34;2517795;23;20482;-83
2023/04/27 02:48:09;;;;;;;5.22;4.50;;;;;;;4.64;100.00;92991.19;2518103;23;20011;-83
2023/04/27 02:49:10;;;;;;;5.40;4.65;;;;;;;4.66;100.00;92990.84;2518874;23;20020;-83
2023/04/27 02:50:12;;;;;;;8.27;4.47;;;;;;;4.66;100.00;92986.28;2517811;23;20438;-83
2023/04/27 02:51:13;;;;;;;9.57;4.40;;;;;;;4.62;100.00;92985.53;2506212;23;20089;-83
2023/04/27 02:52:14;;;;;;;5.72;4.72;;;;;;;4.62;100.00;92990.09;2506838;23;20066;-84
2023/04/27 02:53:15;;;;;;;7.13;4.70;;;;;;;4.64;100.00;92991.19;2493842;23;20078;-83
2023/04/27 02:54:16;;;;;;;5.88;4.53;;;;;;;4.64;100.00;92987.81;2494230;23;20011;-84
2023/04/27 02:55:20;;;;;;;5.43;4.63;;;;;;;4.70;100.00;92991.59;2506322;23;20037;-84
2023/04/27 02:56:21;;;;;;;6.68;4.82;;;;;;;4.68;100.00;92983.25;2507168;23;20013;-84
2023/04/27 02:57:22;;;;;;;9.10;4.50;;;;;;;4.68;100.00;92991.94;2506307;23;20009;-83
2023/04/27 02:58:24;;;;;;;10.38;5.15;;;;;;;4.64;100.00;92990.44;2493968;23;20084;-83
2023/04/27 02:59:25;;;;;;;7.88;4.50;;;;;;;4.65;100.00;92986.66;2506461;23;20441;-82
2023/04/27 03:00:26;;;;;;;8.57;4.60;;;;;;;4.63;100.00;92988.94;2518027;23;20013;-82
2023/04/27 03:01:27;;;;;;;8.82;5.15;;;;;;;4.64;100.00;92985.16;2506647;23;20026;-83
2023/04/27 03:02:28;;;;;;;9.35;4.95;;;;;;;4.66;100.00;92988.94;2518474;23;20006;-84
2023/04/27 03:03:29;;;;;;;5.43;4.32;;;;;;;4.65;100.00;92990.06;2518395;23;20002;-83
2023/04/27 03:04:30;;;;;;;5.70;4.20;;;;;;;4.61;100.00;92991.97;2506330;23;20086;-84
2023/04/27 03:05:31;;;;;;;6.45;4.32;;;;;;;4.63;100.00;92989.69;2505514;23;20461;-83
2023/04/27 03:06:32;;;;;;;7.53;4.63;;;;;;;4.64;100.00;92985.91;2505916;23;20019;-82
2023/04/27 03:07:33;;;;;;;7.05;4.95;;;;;;;4.64;100.00;92982.50;2506739;23;20439;-82
2023/04/27 03:08:34;;;;;;;9.02;5.07;;;;;;;4.69;100.00;92993.47;2506300;23;20007;-82
2023/04/27 03:09:35;;;;;;;5.72;4.30;;;;;;;4.67;100.00;92982.50;2506123;23;20401;-84
2023/04/27 03:10:36;;;;;;;7.30;4.70;;;;;;;4.67;100.00;92984.41;2493924;23;20078;-83
2023/04/27 03:11:38;;;;;;;5.93;4.50;;;;;;;4.68;100.00;92985.91;2506214;23;20011;-83
2023/04/27 03:12:39;;;;;;;9.85;4.63;;;;;;;4.70;100.00;92986.28;2494496;23;20305;-83
2023/04/27 03:13:42;;;;;;;9.27;5.03;;;;;;;4.67;100.00;92985.16;2506627;23;20043;-83
2023/04/27 03:14:43;;;;;;;6.45;4.38;;;;;;;4.63;100.00;92983.66;2518532;23;20528;-83
2023/04/27 03:15:44;;;;;;;5.43;4.28;;;;;;;4.64;100.00;92985.16;2506431;23;20010;-83
2023/04/27 03:16:45;;;;;;;6.50;4.45;;;;;;;4.67;100.00;92984.41;2494668;23;20044;-84
2023/04/27 03:17:46;;;;;;;7.80;4.53;;;;;;;4.67;100.00;92984.41;2507179;23;20383;-83
2023/04/27 03:18:47;;;;;;;7.07;4.22;;;;;;;4.66;100.00;92982.91;2519006;23;20018;-83
2023/04/27 03:19:48;;;;;;;9.63;4.60;;;;;;;4.64;100.00;92985.91;2507266;23;20002;-83
2023/04/27 03:20:49;;;;;;;7.90;4.47;;;;;;;4.66;100.00;92988.94;2506787;23;20494;-83
2023/04/27 03:21:50;;;;;;;6.80;4.47;;;;;;;4.67;100.00;92987.81;2519135;23;20038;-83
2023/04/27 03:22:51;;;;;;;8.20;4.53;;;;;;;4.67;100.00;92989.69;2530202;23;20123;-83
2023/04/27 03:23:52;;;;;;;10.75;6.05;;;;;;;4.69;100.00;92987.41;2507071;23;20066;-82
2023/04/27 03:24:53;;;;;;;11.80;8.35;;;;;;;4.71;100.00;92987.81;2495244;23;20013;-83
2023/04/27 03:25:54;;;;;;;12.15;8.88;;;;;;;4.71;100.00;92982.50;2507582;23;20395;-83
2023/04/27 03:26:55;;;;;;;9.35;7.60;;;;;;;4.72;100.00;92982.13;2506641;23;20013;-83
2023/04/27 03:27:56;;;;;;;11.38;7.35;;;;;;;4.70;100.00;92976.47;2507344;23;20011;-84
2023/04/27 03:28:57;;;;;;;7.53;5.55;;;;;;;4.68;100.00;92986.66;2507161;23;20366;-83
2023/04/27 03:29:58;;;;;;;8.15;5.60;;;;;;;4.68;100.00;92986.66;2494920;23;20090;-83
2023/04/27 03:31:00;;;;;;;9.18;7.00;;;;;;;4.66;100.00;92988.19;2506191;23;20053;-83
2023/04/27 03:32:03;;;;;;;6.93;5.18;;;;;;;4.62;100.00;92987.44;2506892;23;20045;-84
2023/04/27 03:33:04;;;;;;;5.82;4.93;;;;;;;4.59;100.00;92991.59;2496259;23;20095;-84
2023/04/27 03:34:07;;;;;;;7.32;4.72;;;;;;;4.76;100.00;92984.75;2507320;23;20007;-83
2023/04/27 03:35:11;;;;;;;5.15;4.63;;;;;;;4.80;100.00;92990.81;2495472;23;20147;-83
2023/04/27 03:36:13;;;;;;;5.72;4.50;;;;;;;4.75;100.00;92996.50;2495747;23;20007;-83
2023/04/27 03:37:13;;;;;;;7.15;5.05;;;;;;;4.70;100.00;92992.34;2495182;23;20027;-83
2023/04/27 03:38:14;;;;;;;8.15;4.90;;;;;;;4.58;100.00;92987.44;2483753;23;20114;-83
2023/04/27 03:39:15;;;;;;;6.72;4.80;;;;;;;4.59;100.00;92981.00;2507640;23;20055;-84
2023/04/27 03:40:16;;;;;;;9.13;4.88;;;;;;;4.63;100.00;92983.66;2531050;23;20032;-84
2023/04/27 03:41:17;;;;;;;5.80;4.95;;;;;;;4.60;100.00;92979.09;2531061;23;20012;-83
2023/04/27 03:42:18;;;;;;;8.02;6.28;;;;;;;4.61;100.00;92981.41;2506385;23;20368;-84
2023/04/27 03:43:20;;;;;;;10.35;7.25;;;;;;;4.58;100.00;92978.75;2494873;23;20043;-83
2023/04/27 03:44:21;;;;;;;9.65;6.80;;;;;;;4.66;100.00;92982.91;2506916;23;20536;-83
2023/04/27 03:45:23;;;;;;;8.10;6.15;;;;;;;4.67;100.00;92984.41;2507396;23;20002;-83
2023/04/27 03:46:25;;;;;;;11.05;5.78;;;;;;;4.60;100.00;92984.41;2495014;23;20454;-83
2023/04/27 03:47:26;;;;;;;7.80;5.30;;;;;;;4.68;100.00;92980.63;2506984;23;20102;-83
2023/04/27 03:48:27;;;;;;;7.82;5.03;;;;;;;4.65;100.00;92981.38;2518982;23;20010;-84
2023/04/27 03:49:28;;;;;;;9.20;5.10;;;;;;;4.60;100.00;92979.09;2506255;23;20346;-83
2023/04/27 03:50:29;;;;;;;7.03;4.75;;;;;;;4.77;100.00;92986.25;2506616;23;20434;-84
2023/04/27 03:51:33;;;;;;;6.75;4.82;;;;;;;4.78;100.00;92985.13;2495264;23;20480;-83
2023/04/27 03:52:34;;;;;;;9.40;5.13;;;;;;;4.71;100.00;92990.44;2495519;23;20213;-83
2023/04/27 03:53:35;;;;;;;9.23;5.15;;;;;;;4.71;100.00;92996.50;2494971;23;20091;-83
2023/04/27 03:54:36;;;;;;;12.18;5.13;;;;;;;4.76;100.00;92995.34;2519004;23;20362;-84
2023/04/27 03:55:38;;;;;;;5.47;4.68;;;;;;;4.74;100.00;92989.66;2518556;23;20013;-83
2023/04/27 03:56:40;;;;;;;6.10;4.63;;;;;;;4.74;100.00;92993.09;2495366;23;20347;-84
2023/04/27 03:57:40;;;;;;;6.65;5.07;;;;;;;4.66;100.00;92996.13;2506745;23;20093;-84
2023/04/27 03:58:41;;;;;;;8.18;4.75;;;;;;;4.62;100.00;92990.09;2483705;23;20016;-83
2023/04/27 03:59:42;;;;;;;5.70;4.70;;;;;;;4.71;100.00;92993.09;2507286;23;20082;-83
2023/04/27 04:00:43;;;;;;;8.13;4.45;;;;;;;4.68;100.00;92991.94;2507085;23;20010;-84
2023/04/27 04:01:44;;;;;;;6.90;4.65;;;;;;;4.68;100.00;92993.84;2494570;23;20003;-84
2023/04/27 04:02:45;;;;;;;9.45;4.82;;;;;;;4.75;100.00;92999.13;2494409;23;20015;-84
2023/04/27 04:03:46;;;;;;;10.13;5.35;;;;;;;4.70;100.00;92989.69;2498473;23;20360;-83
2023/04/27 04:04:47;;;;;;;7.60;5.18;;;;;;;4.72;100.00;92992.69;2483399;23;20007;-84
2023/04/27 04:05:48;;;;;;;7.32;4.95;;;;;;;4.72;100.00;92990.06;2507362;23;20098;-84
2023/04/27 04:06:49;;;;;;;7.70;5.07;;;;;;;4.70;100.00;92994.25;2506897;23;20128;-83
2023/04/27 04:07:50;;;;;;;8.68;4.82;;;;;;;4.66;100.00;92991.59;2483168;23;20434;-83
2023/04/27 04:08:51;;;;;;;8.90;5.53;;;;;;;4.70;100.00;92992.34;2494658;23;20037;-83
2023/04/27 04:09:52;;;;;;;9.35;5.57;;;;;;;4.73;100.00;92999.50;2518459;23;20006;-84
2023/04/27 04:10:54;;;;;;;7.45;5.07;;;;;;;4.65;100.00;92989.31;2506753;23;20010;-84
2023/04/27 04:11:56;;;;;;;10.70;5.30;;;;;;;4.72;100.00;92991.94;2495730;23;20175;-83
2023/04/27 04:12:57;;;;;;;8.43;5.50;;;;;;;4.72;100.00;92992.69;2495467;23;20003;-83
2023/04/27 04:13:58;;;;;;;10.80;5.95;;;;;;;4.74;100.00;92992.31;2518098;23;20010;-84
2023/04/27 04:14:59;;;;;;;14.70;7.68;;;;;;;4.74;100.00;92992.31;2542513;23;20052;-83
2023/04/27 04:16:06;;;;;;;17.55;12.07;;;;;;;4.75;100.00;92997.25;2530940;23;20012;-83
2023/04/27 04:17:09;;;;;;;10.82;6.03;;;;;;;4.76;100.00;93003.28;2519051;23;20049;-83
2023/04/27 04:18:10;;;;;;;7.82;5.80;;;;;;;4.85;100.00;93002.91;2506824;23;20062;-83
2023/04/27 04:19:11;;;;;;;6.72;5.18;;;;;;;4.82;100.00;92993.81;2494968;23;20011;-84
2023/04/27 04:20:12;;;;;;;9.05;5.60;;;;;;;4.82;100.00;92999.09;2505853;23;20006;-82
2023/04/27 04:21:13;;;;;;;7.80;5.20;;;;;;;4.84;100.00;92999.50;2507211;23;20031;-84
2023/04/27 04:22:14;;;;;;;7.60;5.28;;;;;;;4.79;100.00;92991.94;2503266;23;20007;-83
2023/04/27 04:23:15;;;;;;;10.07;5.28;;;;;;;4.77;100.00;92999.50;2499931;23;20014;-84
2023/04/27 04:24:17;;;;;;;8.65;6.10;;;;;;;4.71;100.00;92998.38;2511907;23;20252;-84
2023/04/27 04:25:20;;;;;;;9.10;5.82;;;;;;;4.75;100.00;92997.25;2490497;23;20014;-83
2023/04/27 04:26:22;;;;;;;11.43;5.68;;;;;;;4.78;100.00;92993.84;2477105;23;20020;-85
2023/04/27 04:27:23;;;;;;;7.75;5.05;;;;;;;4.74;100.00;92997.59;2488837;23;20400;-83
2023/04/27 04:28:24;;;;;;;8.00;5.65;;;;;;;4.74;100.00;92994.97;2487670;23;20313;-84
2023/04/27 04:29:26;;;;;;;10.60;5.45;;;;;;;4.70;100.00;92994.25;2490810;23;20482;-83
2023/04/27 04:30:28;;;;;;;14.05;6.95;;;;;;;4.72;100.00;92994.59;2491196;23;20689;-83
2023/04/27 04:31:29;;;;;;;11.55;6.32;;;;;;;4.72;100.00;92997.25;2491413;23;20170;-84
2023/04/27 04:32:39;;;;;;;7.82;5.47;;;;;;;4.70;100.00;92995.00;2491680;23;20011;-82
2023/04/27 04:33:42;;;;;;;7.38;5.20;;;;;;;4.77;100.00;93002.91;2493085;23;20466;-85
2023/04/27 04:34:50;;;;;;;8.77;4.93;;;;;;;4.75;100.00;92999.91;2479546;23;20016;-83
2023/04/27 04:35:52;;;;;;;11.45;6.22;;;;;;;4.79;100.00;92991.94;2494342;23;20423;-83
2023/04/27 04:36:56;;;;;;;11.60;7.15;;;;;;;4.84;100.00;92988.91;2502757;23;20006;-84
2023/04/27 04:37:57;;;;;;;11.20;7.40;;;;;;;4.85;100.00;93001.00;2491282;23;20033;-83
2023/04/27 04:38:59;;;;;;;11.75;5.32;;;;;;;4.84;100.00;92996.09;2478925;23;20192;-82
2023/04/27 04:40:07;;;;;;;6.13;5.25;;;;;;;4.80;100.00;92998.75;2490845;23;20381;-83
2023/04/27 04:41:09;;;;;;;9.00;5.00;;;;;;;4.81;100.00;92992.31;2492755;23;20014;-85
2023/04/27 04:42:10;;;;;;;9.68;6.07;;;;;;;4.86;100.00;92986.63;2503726;23;20007;-83
2023/04/27 04:43:12;;;;;;;8.13;4.72;;;;;;;4.92;100.00;92985.09;2503739;23;20014;-84
2023/04/27 04:44:13;;;;;;;7.78;5.28;;;;;;;4.83;100.00;92992.69;2504060;23;20007;-83
2023/04/27 04:45:14;;;;;;;8.30;5.10;;;;;;;4.84;100.00;92993.44;2503749;23;20034;-82
2023/04/27 04:46:15;;;;;;;6.88;5.10;;;;;;;4.86;100.00;92997.22;2503495;23;20164;-84
2023/04/27 04:47:16;;;;;;;10.43;6.20;;;;;;;4.90;100.00;92992.66;2492587;23;20089;-84
2023/04/27 04:48:18;;;;;;;9.75;7.00;;;;;;;4.89;100.00;93006.28;2492106;23;20339;-84